MDT,Max TemperatureF,Mean TemperatureF,Min TemperatureF,Max Dew PointF,MeanDew PointF,Min DewpointF,Max Humidity, Mean Humidity, Min Humidity, Max Sea Level PressureIn, Mean Sea Level PressureIn, Min Sea Level PressureIn, Max VisibilityMiles, Mean VisibilityMiles, Min VisibilityMiles, Max Wind SpeedMPH, Mean Wind SpeedMPH, Max Gust SpeedMPH,PrecipitationIn, CloudCover, Events, WindDirDegrees
2011-10-1,82,65,47,34,30,29,58,37,15,30.04,30.00,29.96,10,10,10,14,5,20,0.00,0,,7
2011-10-2,82,64,46,35,32,30,53,34,15,29.99,29.95,29.90,10,10,10,14,4,22,0.00,0,,272
2011-10-3,78,64,49,41,35,31,56,39,21,30.03,29.98,29.92,10,10,10,14,4,22,0.00,0,,59
2011-10-4,79,63,47,44,34,28,71,44,16,29.92,29.80,29.66,10,10,10,14,5,23,0.00,0,,171
2011-10-5,69,58,47,43,38,29,57,43,29,29.67,29.59,29.49,10,10,10,16,7,28,0.00,1,,177
2011-10-6,58,49,39,52,45,32,100,81,61,29.61,29.50,29.37,10,10,7,20,5,26,0.04,6,Rain,7
2011-10-7,53,44,35,37,32,25,86,68,50,29.88,29.63,29.44,10,10,10,28,14,46,T,5,Rain,244
2011-10-8,44,39,33,37,35,33,100,85,70,30.21,30.08,29.91,10,10,5,22,10,35,0.10,7,Rain,17
2011-10-9,43,40,36,38,36,34,100,91,82,30.22,30.12,29.96,10,9,2,8,4,10,0.03,8,Rain,24
2011-10-10,56,46,35,36,32,23,100,64,27,29.95,29.86,29.73,10,8,1,21,8,28,0.00,4,,252
2011-10-11,61,51,40,42,34,29,96,66,36,29.79,29.71,29.62,10,10,10,13,5,24,0.09,3,Rain,272
2011-10-12,53,44,35,39,28,22,93,64,35,30.02,29.93,29.77,10,10,10,24,10,36,0.00,1,,305
2011-10-13,55,44,33,25,23,21,61,45,28,30.00,29.97,29.93,10,10,10,23,7,33,0.00,1,,292
2011-10-14,49,40,30,28,23,17,70,55,40,30.12,30.05,29.99,10,10,10,13,4,18,0.00,6,,274
2011-10-15,69,50,30,35,31,25,75,50,24,30.02,29.89,29.75,10,10,10,26,7,36,0.00,2,,295
2011-10-16,49,44,38,37,28,14,92,62,32,30.12,30.02,29.94,10,10,10,10,4,16,0.01,6,Rain,8
2011-10-17,45,39,32,37,30,19,96,71,45,30.25,30.09,29.90,10,8,1,16,7,29,0.06,6,Rain-Snow,8
2011-10-18,49,38,26,22,18,15,75,52,29,30.35,30.28,30.22,10,10,10,21,6,29,0.00,1,,325
2011-10-19,51,39,26,26,22,20,81,56,30,30.24,30.13,30.00,10,10,10,13,4,15,0.00,0,,310
2011-10-20,63,45,26,29,26,22,81,53,25,30.03,29.97,29.91,10,10,8,14,4,17,0.00,0,,327
2011-10-21,60,47,33,39,32,28,100,67,33,30.19,30.09,29.99,10,10,10,12,4,17,0.02,3,Rain,325
2011-10-22,57,46,34,37,32,28,96,67,38,30.13,30.07,29.93,10,10,10,18,6,29,0.00,3,,272
2011-10-23,57,44,31,32,30,28,82,60,38,30.09,30.00,29.94,10,10,10,18,5,28,0.00,2,,297
2011-10-24,61,46,30,34,30,25,92,59,25,30.07,29.92,29.79,10,10,10,14,4,22,0.00,0,,40
2011-10-25,43,35,27,30,25,16,85,61,37,30.24,30.06,29.82,10,10,8,13,6,18,T,5,Snow,348
2011-10-26,36,28,20,27,20,13,85,63,41,30.30,30.22,30.13,10,7,1,12,4,17,0.01,3,Snow,317
2011-10-27,46,32,18,16,13,6,77,52,27,30.19,30.13,30.03,10,10,10,20,5,26,0.00,3,,290
2011-10-28,44,34,24,17,15,14,63,47,30,30.29,30.18,30.01,10,10,10,21,6,28,0.00,2,,271
2011-10-29,55,41,26,29,15,5,59,37,14,30.03,29.90,29.80,10,10,10,22,9,36,T,3,Rain,303
2011-10-30,47,36,25,22,19,15,75,52,28,30.16,30.10,30.01,10,10,10,21,8,26,0.00,0,,280
2011-10-31,62,47,31,32,21,17,76,49,21,30.00,29.87,29.75,10,10,10,16,6,22,0.00,1,,313